createdAt,value
2023-11-15T00:01:35.855Z,94622.40
2023-11-15T00:04:02.738Z,94622.60
2023-11-15T00:06:29.961Z,94627.00
2023-11-15T00:08:56.799Z,94627.80
2023-11-15T00:11:23.524Z,94626.40
2023-11-15T00:13:52.305Z,94624.20
2023-11-15T00:16:19.507Z,94620.40
2023-11-15T00:18:46.376Z,94619.20
2023-11-15T00:21:13.207Z,94617.80
2023-11-15T00:23:39.882Z,94620.20
2023-11-15T00:26:07.411Z,94621.60
2023-11-15T00:28:36.625Z,94623.60
2023-11-15T00:31:03.821Z,94621.80
2023-11-15T00:33:30.674Z,94623.80
2023-11-15T00:35:57.751Z,94627.60
2023-11-15T00:38:24.614Z,94631.40
2023-11-15T00:40:52.380Z,94625.00
2023-11-15T00:43:20.174Z,94628.60
2023-11-15T00:45:47.210Z,94640.80
2023-11-15T00:48:14.088Z,94635.60
2023-11-15T00:50:40.795Z,94637.60
2023-11-15T00:53:08.717Z,94642.00
2023-11-15T00:55:35.610Z,94645.40
2023-11-15T00:58:04.844Z,94640.40
2023-11-15T01:00:41.001Z,94636.60
2023-11-15T01:03:07.950Z,94638.80
2023-11-15T01:05:35.131Z,94641.00
2023-11-15T01:08:05.441Z,94641.00
2023-11-15T01:10:33.118Z,94648.00
2023-11-15T01:12:59.881Z,94646.80
2023-11-15T01:15:26.732Z,94653.80
2023-11-15T01:17:54.728Z,94650.80
2023-11-15T01:20:21.630Z,94660.00
2023-11-15T01:22:48.455Z,94665.40
2023-11-15T01:25:15.457Z,94671.60
2023-11-15T01:27:42.200Z,94678.00
2023-11-15T01:30:10.132Z,94678.60
2023-11-15T01:32:36.967Z,94682.20
2023-11-15T01:35:04.712Z,94689.40
2023-11-15T01:37:31.810Z,94694.60
2023-11-15T01:39:59.726Z,94689.00
2023-11-15T01:42:26.300Z,94692.60
2023-11-15T01:44:53.420Z,94704.00
2023-11-15T01:47:20.657Z,94708.60
2023-11-15T01:49:47.774Z,94712.80
2023-11-15T01:52:15.576Z,94707.60
2023-11-15T01:54:42.454Z,94710.60
2023-11-15T01:57:09.201Z,94714.40
2023-11-15T01:59:36.601Z,94705.40
2023-11-15T02:02:03.390Z,94711.00
2023-11-15T02:04:30.216Z,94720.00
2023-11-15T02:06:56.954Z,94719.80
2023-11-15T02:09:25.137Z,94728.40
2023-11-15T02:11:53.249Z,94733.20
2023-11-15T02:14:19.979Z,94740.40
2023-11-15T02:16:46.841Z,94748.40
2023-11-15T02:19:16.995Z,94747.20
2023-11-15T02:21:43.727Z,94747.60
2023-11-15T02:24:11.322Z,94761.40
2023-11-15T02:26:38.021Z,94764.60
2023-11-15T02:29:05.147Z,94768.40
2023-11-15T02:31:33.316Z,94772.20
2023-11-15T02:34:00.363Z,94779.60
2023-11-15T02:36:28.778Z,94787.20
2023-11-15T02:38:55.549Z,94787.00
2023-11-15T02:41:23.509Z,94785.20
2023-11-15T02:43:50.252Z,94784.20
2023-11-15T02:46:23.738Z,94782.80
2023-11-15T02:48:51.744Z,94783.40
2023-11-15T02:51:18.538Z,94793.20
2023-11-15T02:53:45.604Z,94797.20
2023-11-15T02:56:12.718Z,94794.00
2023-11-15T02:58:39.396Z,94799.40
2023-11-15T03:01:07.962Z,94800.80
2023-11-15T03:03:37.975Z,94806.60
2023-11-15T03:06:07.307Z,94821.40
2023-11-15T03:14:25.020Z,94843.40
2023-11-15T03:20:59.784Z,94850.00
2023-11-15T03:27:24.654Z,94856.00
2023-11-15T03:30:02.159Z,94859.60
2023-11-15T03:32:31.136Z,94865.20
2023-11-15T03:35:00.301Z,94870.60
2023-11-15T03:37:28.971Z,94874.80
2023-11-15T03:39:57.466Z,94874.20
2023-11-15T03:42:24.625Z,94877.40
2023-11-15T03:44:51.993Z,94891.80
2023-11-15T03:47:20.571Z,94887.40
2023-11-15T03:50:03.090Z,94894.20
2023-11-15T03:52:30.644Z,94897.00
2023-11-15T03:54:57.887Z,94896.80
2023-11-15T03:57:57.716Z,94898.80
2023-11-15T04:07:05.302Z,94919.00
2023-11-15T04:09:44.826Z,94926.20
2023-11-15T04:12:14.864Z,94935.80
2023-11-15T04:14:42.331Z,94947.80
2023-11-15T04:17:09.456Z,94948.40
2023-11-15T04:19:36.938Z,94947.20
2023-11-15T04:22:11.893Z,94955.60
2023-11-15T04:24:41.635Z,94956.40
2023-11-15T04:27:08.774Z,94967.40
2023-11-15T04:29:40.311Z,94972.40
2023-11-15T04:32:08.285Z,94977.60
2023-11-15T04:34:36.526Z,94985.20
2023-11-15T04:37:03.865Z,94990.00
2023-11-15T04:39:31.258Z,94993.40
2023-11-15T04:41:57.932Z,94993.40
2023-11-15T04:44:25.044Z,94994.60
2023-11-15T04:46:52.261Z,94999.40
2023-11-15T04:49:19.343Z,95003.20
2023-11-15T04:51:46.014Z,95006.60
2023-11-15T04:54:12.902Z,95004.80
2023-11-15T04:56:39.758Z,95006.40
2023-11-15T04:59:06.537Z,95010.00
2023-11-15T05:01:33.251Z,95008.80
2023-11-15T05:04:00.264Z,95009.00
2023-11-15T05:06:27.180Z,95015.00
2023-11-15T05:08:54.147Z,95011.20
2023-11-15T05:11:20.886Z,95010.20
2023-11-15T05:13:47.549Z,95015.60
2023-11-15T05:16:14.335Z,95008.80
2023-11-15T05:18:41.042Z,95009.40
2023-11-15T05:21:08.043Z,95008.60
2023-11-15T05:23:34.666Z,95004.40
2023-11-15T05:26:02.335Z,95008.40
2023-11-15T05:28:29.024Z,95003.00
2023-11-15T05:30:56.321Z,95010.00
2023-11-15T05:33:23.080Z,95014.20
2023-11-15T05:35:49.862Z,95012.00
2023-11-15T05:38:16.513Z,95022.60
2023-11-15T05:40:44.673Z,95021.20
2023-11-15T05:43:12.377Z,95026.80
2023-11-15T05:45:39.008Z,95029.00
2023-11-15T05:48:06.087Z,95027.00
2023-11-15T05:50:33.367Z,95025.20
2023-11-15T05:53:00.146Z,95028.80
2023-11-15T05:55:26.862Z,95032.00
2023-11-15T05:57:53.645Z,95034.20
2023-11-15T06:00:21.094Z,95029.40
2023-11-15T06:02:52.048Z,95033.40
2023-11-15T06:05:21.233Z,95032.60
2023-11-15T06:07:48.215Z,95035.80
2023-11-15T06:10:15.644Z,95034.20
2023-11-15T06:12:42.654Z,95040.20
2023-11-15T06:15:10.961Z,95046.20
2023-11-15T06:17:43.097Z,95045.60
2023-11-15T06:20:11.375Z,95051.00
2023-11-15T06:22:41.547Z,95056.40
2023-11-15T06:25:09.567Z,95054.20
2023-11-15T06:27:38.819Z,95054.60
2023-11-15T06:30:10.949Z,95064.60
2023-11-15T06:32:38.163Z,95061.00
2023-11-15T06:35:06.121Z,95069.40
2023-11-15T06:37:35.273Z,95073.40
2023-11-15T06:40:09.084Z,95081.00
2023-11-15T06:42:37.285Z,95083.60
2023-11-15T06:45:05.679Z,95085.20
2023-11-15T06:47:33.210Z,95089.80
2023-11-15T06:50:02.358Z,95087.60
2023-11-15T06:52:29.833Z,95089.40
2023-11-15T06:54:57.394Z,95094.00
2023-11-15T06:57:24.455Z,95099.80
2023-11-15T06:59:51.561Z,95108.20
2023-11-15T07:02:18.317Z,95112.60
2023-11-15T07:04:45.069Z,95119.40
2023-11-15T07:07:12.595Z,95120.60
2023-11-15T07:09:39.380Z,95121.60
2023-11-15T07:12:07.815Z,95127.60
2023-11-15T07:14:35.641Z,95131.00
2023-11-15T07:17:03.085Z,95135.00
2023-11-15T07:19:29.826Z,95140.80
2023-11-15T07:21:57.922Z,95147.80
2023-11-15T07:24:24.811Z,95150.40
2023-11-15T07:26:52.358Z,95158.00
2023-11-15T07:29:19.559Z,95159.80
2023-11-15T07:31:54.336Z,95166.40
2023-11-15T07:37:10.399Z,95162.00
2023-11-15T07:39:37.190Z,95164.80
2023-11-15T07:42:04.069Z,95156.60
2023-11-15T07:44:31.812Z,95160.20
2023-11-15T07:47:00.566Z,95167.20
2023-11-15T07:49:29.900Z,95170.60
2023-11-15T07:51:56.724Z,95163.80
2023-11-15T07:54:23.507Z,95168.00
2023-11-15T07:56:50.253Z,95170.40
2023-11-15T07:59:18.114Z,95173.60
2023-11-15T08:01:47.830Z,95169.60
2023-11-15T08:04:16.797Z,95171.20
2023-11-15T08:06:44.351Z,95171.40
2023-11-15T08:09:26.027Z,95169.80
2023-11-15T08:11:57.397Z,95175.60
2023-11-15T08:14:26.486Z,95167.40
2023-11-15T08:16:54.518Z,95174.00
2023-11-15T08:19:21.634Z,95171.80
2023-11-15T08:21:49.322Z,95172.00
2023-11-15T08:24:22.783Z,95174.40
2023-11-15T08:26:56.990Z,95182.80
2023-11-15T08:29:24.106Z,95180.00
2023-11-15T08:31:51.259Z,95200.00
2023-11-15T08:34:23.154Z,95197.20
2023-11-15T08:36:52.747Z,95207.80
2023-11-15T08:39:19.523Z,95212.40
2023-11-15T08:41:47.968Z,95215.40
2023-11-15T08:44:17.022Z,95214.20
2023-11-15T08:46:46.699Z,95224.60
2023-11-15T08:49:17.430Z,95227.80
2023-11-15T08:51:51.924Z,95230.00
2023-11-15T08:54:18.939Z,95232.80
2023-11-15T08:56:47.114Z,95239.60
2023-11-15T08:59:17.306Z,95234.60
2023-11-15T09:01:51.512Z,95239.00
2023-11-15T09:04:20.200Z,95235.60
2023-11-15T09:06:52.365Z,95237.40
2023-11-15T09:09:19.088Z,95238.20
2023-11-15T09:11:46.392Z,95234.20
2023-11-15T09:14:15.373Z,95241.80
2023-11-15T09:16:43.719Z,95242.00
2023-11-15T09:19:17.309Z,95249.80
2023-11-15T09:21:49.183Z,95254.40
2023-11-15T09:24:23.803Z,95260.60
2023-11-15T09:26:51.328Z,95259.80
2023-11-15T09:29:18.420Z,95263.00
2023-11-15T09:31:45.553Z,95266.40
2023-11-15T09:34:15.289Z,95270.20
2023-11-15T09:36:43.544Z,95271.80
2023-11-15T09:39:17.563Z,95271.00
2023-11-15T09:41:54.966Z,95271.00
2023-11-15T09:44:26.232Z,95275.20
2023-11-15T09:46:55.461Z,95275.20
2023-11-15T09:49:26.361Z,95278.20
2023-11-15T09:51:54.139Z,95286.80
2023-11-15T09:54:25.066Z,95294.00
2023-11-15T09:56:52.029Z,95295.20
2023-11-15T09:59:19.846Z,95296.80
2023-11-15T10:01:52.402Z,95303.00
2023-11-15T10:04:28.778Z,95308.60
2023-11-15T10:07:05.860Z,95309.00
2023-11-15T10:09:40.849Z,95310.20
2023-11-15T10:12:10.249Z,95311.00
2023-11-15T10:14:55.264Z,95301.80
2023-11-15T10:17:39.952Z,95306.40
2023-11-15T10:20:26.792Z,95297.80
2023-11-15T10:22:54.552Z,95297.20
2023-11-15T10:25:33.112Z,95296.20
2023-11-15T10:33:09.714Z,95301.80
2023-11-15T10:35:37.027Z,95302.00
2023-11-15T10:38:05.785Z,95296.00
2023-11-15T10:40:32.516Z,95301.80
2023-11-15T10:43:00.243Z,95302.00
2023-11-15T10:45:31.380Z,95302.20
2023-11-15T10:48:05.848Z,95307.00
2023-11-15T10:50:45.519Z,95312.00
2023-11-15T10:53:13.788Z,95308.20
2023-11-15T10:55:41.962Z,95312.80
2023-11-15T10:58:35.667Z,95305.80
2023-11-15T11:01:02.795Z,95313.80
2023-11-15T11:10:02.894Z,95307.20
2023-11-15T11:16:34.469Z,95308.60
2023-11-15T11:23:34.775Z,95306.40
2023-11-15T12:19:40.822Z,95330.80
2023-11-15T12:22:07.736Z,95332.00
2023-11-15T12:58:43.036Z,95323.00
2023-11-15T13:15:27.644Z,95310.40
2023-11-15T13:17:54.305Z,95316.20
2023-11-15T13:20:21.629Z,95314.20
2023-11-15T13:22:48.388Z,95318.20
2023-11-15T13:25:15.592Z,95320.20
2023-11-15T13:27:42.369Z,95315.00
2023-11-15T13:30:10.019Z,95314.00
2023-11-15T13:32:36.747Z,95316.80
2023-11-15T13:35:08.240Z,95312.60
2023-11-15T13:37:35.831Z,95305.00
2023-11-15T13:40:05.985Z,95302.40
2023-11-15T13:42:34.223Z,95300.80
2023-11-15T13:45:01.017Z,95302.00
2023-11-15T13:47:29.479Z,95300.40
2023-11-15T13:49:57.973Z,95298.60
2023-11-15T13:52:24.739Z,95306.60
2023-11-15T13:54:51.457Z,95314.60
2023-11-15T13:57:19.136Z,95319.00
2023-11-15T13:59:45.973Z,95323.40
2023-11-15T14:02:13.039Z,95341.40
2023-11-15T14:04:39.954Z,95351.40
2023-11-15T14:07:07.481Z,95355.80
2023-11-15T14:09:34.936Z,95349.20
2023-11-15T14:12:01.873Z,95342.20
2023-11-15T14:14:28.599Z,95341.60
2023-11-15T14:16:56.301Z,95347.20
2023-11-15T14:19:26.016Z,95346.00
2023-11-15T15:55:46.582Z,95409.80
2023-11-15T15:58:17.504Z,95416.40
2023-11-15T16:00:44.281Z,95419.00
2023-11-15T16:03:11.026Z,95422.60
2023-11-15T16:10:12.198Z,95428.40
2023-11-15T16:12:58.693Z,95433.00
2023-11-15T16:15:44.891Z,95439.00
2023-11-15T16:18:14.613Z,95443.40
2023-11-15T16:20:41.308Z,95448.40
2023-11-15T16:23:08.007Z,95443.00
2023-11-15T16:25:35.307Z,95452.20
2023-11-15T16:28:02.195Z,95456.60
2023-11-15T16:30:30.435Z,95461.40
2023-11-15T16:32:57.251Z,95461.20
2023-11-15T16:35:24.808Z,95462.60
2023-11-15T16:37:51.773Z,95464.80
2023-11-15T16:40:18.443Z,95476.80
2023-11-15T16:42:55.964Z,95482.20
2023-11-15T16:49:59.278Z,95495.20
2023-11-15T16:52:29.940Z,95494.60
2023-11-15T16:58:23.689Z,95500.00
2023-11-15T17:00:50.546Z,95510.20
2023-11-15T17:03:17.391Z,95514.20
2023-11-15T17:05:44.119Z,95522.00
2023-11-15T17:08:10.741Z,95535.20
2023-11-15T17:10:37.451Z,95537.80
2023-11-15T17:13:06.361Z,95539.20
2023-11-15T17:15:33.068Z,95538.40
2023-11-15T17:18:40.142Z,95539.20
2023-11-15T17:21:07.839Z,95544.40
2023-11-15T17:23:35.131Z,95546.40
2023-11-15T17:26:22.449Z,95545.00
2023-11-15T17:28:50.032Z,95550.00
2023-11-15T17:31:25.540Z,95549.80
2023-11-15T17:33:52.694Z,95554.00
2023-11-15T17:36:20.809Z,95571.40
2023-11-15T17:38:48.052Z,95584.40
2023-11-15T17:41:16.466Z,95567.60
2023-11-15T17:43:45.247Z,95563.80
2023-11-15T17:46:14.019Z,95569.20
2023-11-15T17:48:42.755Z,95563.40
2023-11-15T17:51:10.061Z,95564.40
2023-11-15T17:53:40.792Z,95563.00
2023-11-15T17:56:10.586Z,95566.00
2023-11-15T17:58:39.008Z,95568.80
2023-11-15T18:01:07.249Z,95568.60
2023-11-15T18:03:34.903Z,95572.80
2023-11-15T18:06:05.008Z,95572.00
2023-11-15T18:08:32.291Z,95577.60
2023-11-15T18:10:59.445Z,95578.60
2023-11-15T18:13:26.333Z,95573.60
2023-11-15T18:15:53.076Z,95576.40
2023-11-15T18:18:20.300Z,95578.00
2023-11-15T18:20:49.032Z,95576.00
2023-11-15T18:23:16.028Z,95585.20
2023-11-15T18:25:43.855Z,95583.60
2023-11-15T18:28:10.522Z,95585.60
2023-11-15T18:30:37.994Z,95588.00
2023-11-15T18:33:05.014Z,95589.80
2023-11-15T18:35:33.453Z,95587.40
2023-11-15T18:38:00.195Z,95586.00
2023-11-15T18:40:27.698Z,95582.40
2023-11-15T18:42:55.760Z,95589.00
2023-11-15T18:45:23.978Z,95585.20
2023-11-15T18:47:51.283Z,95587.40
2023-11-15T18:50:20.347Z,95586.80
2023-11-15T18:52:47.333Z,95586.80
2023-11-15T18:55:15.395Z,95593.40
2023-11-15T18:57:45.083Z,95594.60
2023-11-15T19:00:19.326Z,95595.00
2023-11-15T19:02:47.335Z,95603.00
2023-11-15T19:05:17.483Z,95597.40
2023-11-15T19:07:45.565Z,95595.60
2023-11-15T19:10:18.032Z,95598.40
2023-11-15T19:12:46.558Z,95601.80
2023-11-15T19:15:13.620Z,95600.80
2023-11-15T19:17:43.597Z,95607.20
2023-11-15T19:20:11.667Z,95606.20
2023-11-15T19:22:38.796Z,95605.60
2023-11-15T19:25:08.231Z,95600.60
2023-11-15T19:27:35.791Z,95599.40
2023-11-15T19:30:02.932Z,95608.40
2023-11-15T19:32:30.013Z,95609.60
2023-11-15T19:34:57.156Z,95611.60
2023-11-15T19:37:24.455Z,95611.00
2023-11-15T19:39:51.444Z,95610.20
2023-11-15T19:42:18.378Z,95612.40
2023-11-15T19:44:45.049Z,95614.80
2023-11-15T19:47:11.745Z,95616.60
2023-11-15T19:49:38.467Z,95621.00
2023-11-15T19:52:10.494Z,95616.20
2023-11-15T19:54:37.821Z,95617.60
2023-11-15T19:57:06.759Z,95617.40
2023-11-15T19:59:34.535Z,95614.20
2023-11-15T20:02:02.434Z,95613.00
2023-11-15T20:04:32.949Z,95616.40
2023-11-15T20:07:00.798Z,95612.00
2023-11-15T20:09:33.636Z,95614.40
2023-11-15T20:12:00.945Z,95614.20
2023-11-15T20:14:27.721Z,95615.60
2023-11-15T20:16:57.502Z,95619.60
2023-11-15T20:24:18.374Z,95617.20
2023-11-15T20:35:09.377Z,95612.00
2023-11-15T20:40:30.654Z,95615.40
2023-11-15T20:43:01.502Z,95615.40
2023-11-15T21:43:51.766Z,95606.20
2023-11-15T21:46:18.656Z,95608.80
2023-11-15T21:48:45.838Z,95605.40
2023-11-15T21:51:12.618Z,95605.00
2023-11-15T21:53:39.341Z,95604.20
2023-11-15T21:56:14.244Z,95604.40
2023-11-15T21:58:40.831Z,95607.00
2023-11-15T22:01:14.040Z,95604.00
2023-11-15T22:03:45.405Z,95604.60
2023-11-15T22:06:17.722Z,95607.40
2023-11-15T22:08:57.064Z,95603.20
2023-11-15T22:11:23.934Z,95606.20
2023-11-15T22:13:50.751Z,95603.60
2023-11-15T22:16:27.436Z,95603.40
2023-11-15T22:18:54.161Z,95604.80
2023-11-15T23:26:32.532Z,95536.80
2023-11-15T23:28:59.205Z,95538.80
2023-11-15T23:31:26.190Z,95536.20
2023-11-15T23:33:52.981Z,95527.00
2023-11-15T23:36:19.605Z,95525.40
2023-11-15T23:38:46.280Z,95523.00
2023-11-15T23:41:13.007Z,95520.40
2023-11-15T23:43:40.480Z,95514.80
2023-11-15T23:46:07.443Z,95515.80
2023-11-15T23:48:34.214Z,95513.40
2023-11-15T23:51:01.708Z,95510.40
2023-11-15T23:53:30.576Z,95511.80
2023-11-15T23:55:57.362Z,95509.00
2023-11-15T23:58:23.998Z,95505.60
